Time;durP1;ratioP1;P1;durP2;ratioP2;P2;SDS_P1;SDS_P2;PMS_P1;PMS_P2;Temp;Humidity;BMP_temperature;BMP_pressure;BME280_temperature;BME280_humidity;BME280_pressure;Samples;Min_cycle;Max_cycle;Signal;HPM_P1;HPM_P2
2022/05/18 00:01:29;;;;;;;38.17;14.07;;;;;;;;;;4969660;28;20046;-65
2022/05/18 00:03:55;;;;;;;39.90;15.05;;;;;;;;;;4970094;28;20049;-64
2022/05/18 00:06:20;;;;;;;33.53;14.88;;;;;;;;;;4970364;28;20073;-64
2022/05/18 00:08:46;;;;;;;31.60;14.43;;;;;;;;;;4979977;28;20141;-64
2022/05/18 00:11:16;;;;;;;39.72;16.52;;;;;;;;;;4970496;28;20068;-64
2022/05/18 00:13:42;;;;;;;37.70;16.17;;;;;;;;;;4973894;28;20100;-66
2022/05/18 00:16:08;;;;;;;36.85;17.83;;;;;;;;;;4970734;28;21134;-65
2022/05/18 00:18:36;;;;;;;37.03;16.88;;;;;;;;;;4965170;28;20034;-65
2022/05/18 00:21:01;;;;;;;36.72;17.27;;;;;;;;;;4967903;28;20497;-65
2022/05/18 00:23:27;;;;;;;35.10;17.58;;;;;;;;;;4970827;28;20234;-64
2022/05/18 00:25:53;;;;;;;37.63;17.55;;;;;;;;;;4967615;28;20053;-64
2022/05/18 00:28:18;;;;;;;31.23;15.98;;;;;;;;;;4964979;28;20187;-65
2022/05/18 00:30:43;;;;;;;37.80;18.67;;;;;;;;;;4970654;28;20419;-64
2022/05/18 00:33:09;;;;;;;37.92;18.48;;;;;;;;;;4969888;28;20048;-65
2022/05/18 00:35:36;;;;;;;39.67;18.42;;;;;;;;;;4974480;28;20064;-64
2022/05/18 00:38:03;;;;;;;39.17;17.85;;;;;;;;;;4959221;28;20577;-64
2022/05/18 00:40:28;;;;;;;33.85;17.52;;;;;;;;;;4974071;28;20199;-64
2022/05/18 00:42:54;;;;;;;39.75;19.92;;;;;;;;;;4971519;28;20826;-64
2022/05/18 00:45:19;;;;;;;36.83;19.02;;;;;;;;;;4973666;28;20200;-64
2022/05/18 00:47:45;;;;;;;35.63;18.00;;;;;;;;;;4970761;28;20597;-64
2022/05/18 00:50:13;;;;;;;28.67;19.08;;;;;;;;;;4970845;28;20037;-64
2022/05/18 00:52:40;;;;;;;32.10;19.05;;;;;;;;;;4970820;28;20462;-64
2022/05/18 00:55:11;;;;;;;30.83;19.50;;;;;;;;;;4971453;28;20867;-65
2022/05/18 00:57:48;;;;;;;35.75;19.85;;;;;;;;;;4971373;28;20188;-65
2022/05/18 01:00:19;;;;;;;28.33;18.58;;;;;;;;;;4969240;28;20038;-65
2022/05/18 01:02:46;;;;;;;28.70;18.70;;;;;;;;;;4957973;28;20228;-65
2022/05/18 01:05:16;;;;;;;33.47;19.98;;;;;;;;;;4971283;28;20041;-65
2022/05/18 01:07:43;;;;;;;;;;;;;;;;;;4970518;28;20209;-65
2022/05/18 01:10:09;;;;;;;32.00;19.27;;;;;;;;;;4970955;28;19917;-65
2022/05/18 01:12:34;;;;;;;32.63;20.05;;;;;;;;;;4970931;28;20261;-65
2022/05/18 01:15:03;;;;;;;35.72;21.20;;;;;;;;;;4971582;28;20030;-65
2022/05/18 01:17:33;;;;;;;32.00;21.13;;;;;;;;;;4970439;28;20044;-65
2022/05/18 01:20:00;;;;;;;35.17;21.33;;;;;;;;;;4968547;28;20108;-65
2022/05/18 01:22:41;;;;;;;32.72;22.17;;;;;;;;;;4969296;28;20878;-65
2022/05/18 01:25:25;;;;;;;34.55;22.20;;;;;;;;;;4967758;28;20119;-64
2022/05/18 01:27:50;;;;;;;38.10;23.13;;;;;;;;;;4968708;28;20049;-65
2022/05/18 01:30:19;;;;;;;35.15;22.80;;;;;;;;;;4969783;28;20111;-64
2022/05/18 01:32:51;;;;;;;34.40;23.02;;;;;;;;;;4969947;28;20036;-64
2022/05/18 01:35:19;;;;;;;34.60;22.23;;;;;;;;;;4975521;28;20034;-64
2022/05/18 01:37:44;;;;;;;32.65;21.33;;;;;;;;;;4970190;28;20091;-65
2022/05/18 01:40:23;;;;;;;33.53;23.13;;;;;;;;;;4965349;28;20072;-64
2022/05/18 01:42:52;;;;;;;39.38;24.45;;;;;;;;;;4960982;28;20029;-65
2022/05/18 01:45:17;;;;;;;34.92;24.88;;;;;;;;;;4961517;28;20316;-65
2022/05/18 01:47:43;;;;;;;35.63;25.02;;;;;;;;;;4973589;28;20057;-65
2022/05/18 01:50:10;;;;;;;35.72;24.98;;;;;;;;;;4968604;28;20033;-65
2022/05/18 01:52:36;;;;;;;35.38;24.42;;;;;;;;;;4972687;28;20034;-65
2022/05/18 01:55:02;;;;;;;36.53;24.88;;;;;;;;;;4971118;28;20565;-64
2022/05/18 01:57:29;;;;;;;37.30;25.00;;;;;;;;;;4970541;28;20030;-65
2022/05/18 01:59:55;;;;;;;43.08;27.00;;;;;;;;;;4969311;28;20708;-65
2022/05/18 02:02:22;;;;;;;37.90;26.05;;;;;;;;;;4961856;28;20061;-65
2022/05/18 02:04:48;;;;;;;43.72;26.92;;;;;;;;;;4969657;28;20177;-65
2022/05/18 02:07:14;;;;;;;42.45;26.90;;;;;;;;;;4967342;28;20599;-64
2022/05/18 02:09:39;;;;;;;39.03;26.35;;;;;;;;;;4970278;28;20030;-64
2022/05/18 02:12:07;;;;;;;44.58;27.42;;;;;;;;;;4969171;28;20038;-64
2022/05/18 02:14:32;;;;;;;41.65;27.20;;;;;;;;;;4969791;28;20107;-64
2022/05/18 02:16:58;;;;;;;40.40;26.38;;;;;;;;;;4974242;28;20037;-64
2022/05/18 02:19:23;;;;;;;40.50;27.13;;;;;;;;;;4966722;28;20041;-64
2022/05/18 02:21:49;;;;;;;47.15;28.55;;;;;;;;;;4980849;28;20037;-64
2022/05/18 02:24:15;;;;;;;45.00;28.67;;;;;;;;;;4968249;28;20036;-64
2022/05/18 02:26:40;;;;;;;35.40;25.15;;;;;;;;;;4970147;28;20045;-64
2022/05/18 02:29:05;;;;;;;47.97;29.70;;;;;;;;;;4969814;28;20030;-64
2022/05/18 02:31:31;;;;;;;42.53;29.27;;;;;;;;;;4964999;28;20045;-64
2022/05/18 02:33:56;;;;;;;42.33;29.42;;;;;;;;;;4969105;28;20566;-64
2022/05/18 02:36:22;;;;;;;44.20;29.13;;;;;;;;;;4969225;28;20046;-65
2022/05/18 02:38:48;;;;;;;45.30;27.85;;;;;;;;;;4966412;28;20036;-64
2022/05/18 02:41:13;;;;;;;41.30;29.00;;;;;;;;;;4967814;28;20041;-64
2022/05/18 02:43:38;;;;;;;40.17;27.65;;;;;;;;;;4969602;28;20674;-64
2022/05/18 02:46:08;;;;;;;40.83;28.38;;;;;;;;;;4970098;28;20046;-64
2022/05/18 02:48:37;;;;;;;47.38;28.65;;;;;;;;;;4967674;28;20779;-65
2022/05/18 02:51:03;;;;;;;39.70;26.27;;;;;;;;;;4968452;28;20892;-65
2022/05/18 02:53:28;;;;;;;41.67;26.45;;;;;;;;;;4969976;28;20037;-65
2022/05/18 02:56:06;;;;;;;37.60;25.75;;;;;;;;;;4971826;28;20041;-65
2022/05/18 02:58:52;;;;;;;43.33;26.40;;;;;;;;;;4972316;28;20153;-65
2022/05/18 03:01:19;;;;;;;44.47;25.38;;;;;;;;;;4999576;28;20042;-64
2022/05/18 03:03:45;;;;;;;38.75;24.88;;;;;;;;;;4971413;28;20045;-65
2022/05/18 03:06:11;;;;;;;38.42;24.75;;;;;;;;;;4958496;28;20042;-65
2022/05/18 03:08:38;;;;;;;38.75;26.05;;;;;;;;;;4965664;28;20586;-65
2022/05/18 03:11:06;;;;;;;41.13;25.23;;;;;;;;;;4969077;28;20095;-65
2022/05/18 03:13:32;;;;;;;37.72;24.20;;;;;;;;;;4970282;28;20100;-65
2022/05/18 03:15:57;;;;;;;37.15;23.80;;;;;;;;;;4971616;28;20045;-64
2022/05/18 03:18:23;;;;;;;36.75;21.58;;;;;;;;;;4981751;28;20037;-65
2022/05/18 03:23:35;;;;;;;33.08;16.33;;;;;;;;;;4972105;28;20030;-64
2022/05/18 03:26:10;;;;;;;28.77;15.45;;;;;;;;;;4967568;28;20151;-64
2022/05/18 03:28:40;;;;;;;23.38;13.90;;;;;;;;;;4954265;28;20132;-64
2022/05/18 03:31:06;;;;;;;21.65;11.45;;;;;;;;;;4963436;28;20557;-65
2022/05/18 03:33:31;;;;;;;18.83;10.18;;;;;;;;;;4991883;28;20037;-64
2022/05/18 03:35:59;;;;;;;19.55;10.23;;;;;;;;;;4988837;28;20124;-65
2022/05/18 03:38:25;;;;;;;19.35;8.90;;;;;;;;;;4991474;28;20103;-65
2022/05/18 03:40:50;;;;;;;17.70;9.13;;;;;;;;;;4987862;28;20037;-66
2022/05/18 03:43:16;;;;;;;16.90;8.43;;;;;;;;;;4989460;28;20036;-65
2022/05/18 03:45:42;;;;;;;18.55;7.90;;;;;;;;;;4982477;28;20030;-65
2022/05/18 03:48:11;;;;;;;14.48;8.23;;;;;;;;;;4986668;28;20025;-65
2022/05/18 03:50:37;;;;;;;16.77;8.38;;;;;;;;;;4992544;28;20036;-65
2022/05/18 03:53:06;;;;;;;15.68;9.27;;;;;;;;;;4980993;28;21305;-65
2022/05/18 03:55:33;;;;;;;18.27;8.93;;;;;;;;;;4995638;28;20029;-65
2022/05/18 03:57:58;;;;;;;16.33;9.27;;;;;;;;;;4994377;28;20047;-66
2022/05/18 04:00:24;;;;;;;21.30;10.15;;;;;;;;;;4993426;28;20034;-65
2022/05/18 04:02:51;;;;;;;21.05;9.90;;;;;;;;;;4992452;28;20034;-65
2022/05/18 04:05:18;;;;;;;36.13;14.23;;;;;;;;;;4992147;28;20064;-65
2022/05/18 04:07:43;;;;;;;25.05;15.02;;;;;;;;;;4992803;28;20437;-65
2022/05/18 04:10:10;;;;;;;20.73;14.27;;;;;;;;;;4974860;28;20041;-65
2022/05/18 04:12:36;;;;;;;24.02;14.90;;;;;;;;;;4990786;28;20075;-65
2022/05/18 04:15:04;;;;;;;24.42;14.63;;;;;;;;;;4992140;28;20061;-65
2022/05/18 04:17:30;;;;;;;24.42;14.43;;;;;;;;;;4991577;28;20048;-66
2022/05/18 04:19:55;;;;;;;28.10;17.13;;;;;;;;;;4994299;28;20049;-65
2022/05/18 04:22:21;;;;;;;27.50;17.33;;;;;;;;;;4993456;28;20036;-66
2022/05/18 04:24:46;;;;;;;28.27;16.83;;;;;;;;;;4978109;28;20034;-66
2022/05/18 04:27:12;;;;;;;32.05;17.70;;;;;;;;;;4969284;28;20053;-65
2022/05/18 04:29:37;;;;;;;25.98;15.85;;;;;;;;;;4964847;28;20041;-65
2022/05/18 04:32:04;;;;;;;25.67;16.52;;;;;;;;;;4973345;28;20082;-66
2022/05/18 04:34:29;;;;;;;41.03;21.55;;;;;;;;;;4973167;28;20041;-66
2022/05/18 04:36:54;;;;;;;32.88;18.63;;;;;;;;;;4967556;28;20037;-66
2022/05/18 04:39:22;;;;;;;28.83;17.17;;;;;;;;;;4974283;28;20131;-65
2022/05/18 04:41:47;;;;;;;39.67;19.95;;;;;;;;;;4973351;28;20944;-66
2022/05/18 04:44:13;;;;;;;32.35;18.25;;;;;;;;;;4972017;28;20033;-66
2022/05/18 04:46:42;;;;;;;30.63;15.63;;;;;;;;;;4968013;28;20138;-66
2022/05/18 04:49:09;;;;;;;25.30;13.07;;;;;;;;;;4973051;28;20030;-66
2022/05/18 04:51:35;;;;;;;33.88;13.70;;;;;;;;;;4966959;28;20042;-66
2022/05/18 04:54:00;;;;;;;19.98;11.25;;;;;;;;;;4973682;28;20192;-64
2022/05/18 04:56:27;;;;;;;33.15;14.85;;;;;;;;;;4974129;28;20034;-65
2022/05/18 04:58:53;;;;;;;21.95;13.75;;;;;;;;;;4968424;28;20069;-65
2022/05/18 05:01:18;;;;;;;30.35;16.83;;;;;;;;;;4971337;28;21222;-65
2022/05/18 05:03:44;;;;;;;24.88;13.88;;;;;;;;;;4971685;28;20164;-67
2022/05/18 05:06:09;;;;;;;21.40;13.10;;;;;;;;;;4972114;28;20061;-65
2022/05/18 05:08:35;;;;;;;22.73;13.80;;;;;;;;;;4973174;28;20069;-65
2022/05/18 05:11:01;;;;;;;20.48;13.30;;;;;;;;;;4969076;28;20569;-65
2022/05/18 05:13:27;;;;;;;16.77;12.23;;;;;;;;;;4968406;28;20037;-65
2022/05/18 05:16:01;;;;;;;16.05;11.13;;;;;;;;;;4974696;28;20044;-65
2022/05/18 05:18:29;;;;;;;17.45;11.50;;;;;;;;;;4997457;28;20928;-64
2022/05/18 05:21:00;;;;;;;17.85;12.20;;;;;;;;;;4987190;28;20033;-67
2022/05/18 05:23:26;;;;;;;19.73;12.00;;;;;;;;;;4985240;28;20052;-67
2022/05/18 05:25:55;;;;;;;24.13;12.75;;;;;;;;;;4989597;28;20053;-66
2022/05/18 05:28:20;;;;;;;18.48;12.30;;;;;;;;;;4973247;28;20056;-66
2022/05/18 05:30:46;;;;;;;19.23;12.00;;;;;;;;;;4967766;28;21242;-66
2022/05/18 05:33:14;;;;;;;22.27;12.70;;;;;;;;;;4965646;28;20151;-66
2022/05/18 05:35:42;;;;;;;16.63;12.02;;;;;;;;;;4970198;28;20589;-67
2022/05/18 05:38:08;;;;;;;22.27;13.00;;;;;;;;;;4968486;28;20048;-70
2022/05/18 05:40:34;;;;;;;21.75;13.13;;;;;;;;;;4967998;28;20045;-69
2022/05/18 05:43:04;;;;;;;22.95;14.07;;;;;;;;;;4969881;28;20043;-69
2022/05/18 05:45:31;;;;;;;18.35;13.02;;;;;;;;;;4969543;28;20088;-70
2022/05/18 05:47:58;;;;;;;21.67;14.18;;;;;;;;;;4967282;28;20443;-70
2022/05/18 05:50:24;;;;;;;20.05;14.23;;;;;;;;;;4974364;28;20029;-71
2022/05/18 05:52:49;;;;;;;20.00;14.98;;;;;;;;;;4974772;28;20033;-69
2022/05/18 05:55:15;;;;;;;20.33;15.30;;;;;;;;;;4987221;28;20102;-66
2022/05/18 05:57:40;;;;;;;21.30;14.90;;;;;;;;;;4985039;28;20484;-68
2022/05/18 06:00:07;;;;;;;22.20;16.05;;;;;;;;;;4987503;28;20154;-68
2022/05/18 06:02:33;;;;;;;20.15;15.35;;;;;;;;;;4982665;28;20584;-68
2022/05/18 06:04:58;;;;;;;23.48;16.40;;;;;;;;;;4987148;28;20049;-68
2022/05/18 06:07:23;;;;;;;26.92;16.98;;;;;;;;;;4988420;28;20638;-68
2022/05/18 06:09:49;;;;;;;27.45;17.30;;;;;;;;;;4983921;28;20047;-69
2022/05/18 06:12:14;;;;;;;25.00;16.75;;;;;;;;;;4970034;28;20844;-68
2022/05/18 06:14:42;;;;;;;28.98;16.70;;;;;;;;;;4962720;28;20887;-68
2022/05/18 06:17:08;;;;;;;21.85;16.48;;;;;;;;;;4968143;28;20134;-68
2022/05/18 06:19:33;;;;;;;27.92;16.67;;;;;;;;;;4966661;28;20034;-68
2022/05/18 06:21:59;;;;;;;23.00;16.67;;;;;;;;;;4985590;28;20033;-68
2022/05/18 06:24:24;;;;;;;25.65;18.17;;;;;;;;;;4982919;28;20030;-69
2022/05/18 06:26:50;;;;;;;26.83;18.38;;;;;;;;;;4973368;28;20131;-69
2022/05/18 06:29:16;;;;;;;27.60;18.52;;;;;;;;;;4971648;28;20030;-66
2022/05/18 06:31:41;;;;;;;28.45;18.58;;;;;;;;;;4970372;28;20068;-67
2022/05/18 06:34:09;;;;;;;25.45;19.42;;;;;;;;;;4969902;28;20037;-68
2022/05/18 06:36:35;;;;;;;28.50;19.20;;;;;;;;;;4952839;28;20048;-68
2022/05/18 06:39:01;;;;;;;28.27;19.63;;;;;;;;;;4990919;28;20092;-68
2022/05/18 06:41:28;;;;;;;26.33;19.10;;;;;;;;;;4981235;28;20029;-68
2022/05/18 06:43:58;;;;;;;30.38;20.70;;;;;;;;;;4992048;28;20139;-68
2022/05/18 06:46:25;;;;;;;26.35;19.15;;;;;;;;;;4989506;28;20860;-69
2022/05/18 06:48:50;;;;;;;26.75;19.27;;;;;;;;;;4988776;28;20038;-67
2022/05/18 06:51:19;;;;;;;24.70;19.25;;;;;;;;;;4983181;28;20122;-69
2022/05/18 06:53:44;;;;;;;29.25;20.40;;;;;;;;;;4986472;28;20860;-72
2022/05/18 06:56:10;;;;;;;27.92;20.10;;;;;;;;;;4977380;28;20034;-72
2022/05/18 06:58:36;;;;;;;24.35;19.75;;;;;;;;;;4974902;28;20033;-73
2022/05/18 07:01:01;;;;;;;26.15;19.52;;;;;;;;;;4973938;28;20061;-74
2022/05/18 07:03:27;;;;;;;27.92;19.05;;;;;;;;;;4973462;28;20298;-71
2022/05/18 07:05:52;;;;;;;28.45;18.88;;;;;;;;;;4974662;28;20042;-74
2022/05/18 07:08:17;;;;;;;29.60;19.85;;;;;;;;;;4970512;28;20068;-73
2022/05/18 07:10:46;;;;;;;30.67;19.88;;;;;;;;;;4963607;28;20034;-69
2022/05/18 07:13:16;;;;;;;27.33;19.60;;;;;;;;;;4971391;28;20064;-70
2022/05/18 07:15:42;;;;;;;28.60;18.95;;;;;;;;;;4980530;28;20239;-71
2022/05/18 07:18:07;;;;;;;26.40;19.23;;;;;;;;;;4986729;28;20053;-70
2022/05/18 07:20:32;;;;;;;25.95;18.38;;;;;;;;;;4983698;28;20462;-71
2022/05/18 07:22:58;;;;;;;25.45;18.20;;;;;;;;;;4989728;28;20038;-71
2022/05/18 07:25:23;;;;;;;31.30;19.95;;;;;;;;;;4987629;28;20160;-71
2022/05/18 07:27:49;;;;;;;27.35;18.52;;;;;;;;;;4990928;28;20138;-69
2022/05/18 07:30:15;;;;;;;27.55;19.90;;;;;;;;;;4985658;28;20065;-70
2022/05/18 07:32:41;;;;;;;30.65;20.08;;;;;;;;;;4985130;28;20556;-69
2022/05/18 07:35:07;;;;;;;27.55;18.42;;;;;;;;;;4989734;28;20650;-72
2022/05/18 07:37:33;;;;;;;26.50;19.58;;;;;;;;;;4978922;28;20358;-71
2022/05/18 07:40:00;;;;;;;25.42;18.08;;;;;;;;;;5002355;28;20044;-72
2022/05/18 07:42:27;;;;;;;27.45;18.63;;;;;;;;;;4973703;28;20038;-72
2022/05/18 07:44:52;;;;;;;26.45;18.33;;;;;;;;;;4962806;28;20912;-68
2022/05/18 07:47:18;;;;;;;28.65;19.05;;;;;;;;;;4952834;28;20511;-67
2022/05/18 07:49:43;;;;;;;26.45;18.23;;;;;;;;;;4956521;28;21818;-70
2022/05/18 07:52:10;;;;;;;28.92;18.20;;;;;;;;;;4966461;28;20030;-69
2022/05/18 07:54:36;;;;;;;28.92;19.20;;;;;;;;;;4966553;28;20145;-69
2022/05/18 07:57:05;;;;;;;27.05;19.55;;;;;;;;;;4966716;28;20046;-71
2022/05/18 07:59:31;;;;;;;28.52;19.80;;;;;;;;;;4958668;28;20093;-71
2022/05/18 08:01:57;;;;;;;29.45;19.70;;;;;;;;;;4972431;28;20119;-68
2022/05/18 08:04:22;;;;;;;28.83;18.92;;;;;;;;;;4968128;28;20168;-69
2022/05/18 08:06:48;;;;;;;28.10;19.15;;;;;;;;;;4972435;28;22294;-71
2022/05/18 08:09:13;;;;;;;29.95;19.20;;;;;;;;;;4971516;28;20037;-71
2022/05/18 08:17:06;;;;;;;28.75;19.20;;;;;;;;;;4970598;28;20126;-69
2022/05/18 08:19:31;;;;;;;28.17;17.98;;;;;;;;;;4971848;28;20037;-68
2022/05/18 08:21:59;;;;;;;23.77;17.13;;;;;;;;;;4969731;28;20391;-69
2022/05/18 08:24:27;;;;;;;27.90;18.08;;;;;;;;;;4969700;28;20164;-68
2022/05/18 08:26:53;;;;;;;27.10;18.20;;;;;;;;;;4969970;28;20680;-68
2022/05/18 08:29:18;;;;;;;30.55;17.10;;;;;;;;;;4964062;28;20235;-68
2022/05/18 08:31:44;;;;;;;22.63;15.82;;;;;;;;;;4967511;28;20137;-68
2022/05/18 08:34:09;;;;;;;24.90;17.48;;;;;;;;;;4965893;28;20034;-68
2022/05/18 08:36:35;;;;;;;25.25;16.58;;;;;;;;;;4968603;28;20034;-69
2022/05/18 08:39:00;;;;;;;26.13;16.70;;;;;;;;;;4980744;28;20067;-74
2022/05/18 08:41:41;;;;;;;22.75;14.73;;;;;;;;;;4964911;28;20107;-74
2022/05/18 08:44:08;;;;;;;23.05;14.93;;;;;;;;;;4956100;28;20157;-73
2022/05/18 08:46:44;;;;;;;20.27;14.25;;;;;;;;;;4955996;28;20263;-74
2022/05/18 08:49:18;;;;;;;20.38;13.85;;;;;;;;;;4958037;28;20115;-71
2022/05/18 08:51:50;;;;;;;21.02;13.20;;;;;;;;;;4973179;28;20109;-74
2022/05/18 08:54:22;;;;;;;19.25;12.85;;;;;;;;;;4970643;28;20037;-73
2022/05/18 08:56:49;;;;;;;21.38;14.27;;;;;;;;;;4963484;28;20052;-73
2022/05/18 08:59:24;;;;;;;22.63;11.77;;;;;;;;;;4972323;28;20029;-72
2022/05/18 09:01:54;;;;;;;18.48;12.43;;;;;;;;;;4976650;28;20065;-73
2022/05/18 09:04:31;;;;;;;19.60;12.90;;;;;;;;;;4978635;28;20060;-72
2022/05/18 09:07:01;;;;;;;17.73;12.55;;;;;;;;;;4960513;28;20038;-76
2022/05/18 09:10:16;;;;;;;23.30;14.52;;;;;;;;;;4972031;28;20111;-75
2022/05/18 09:12:22;;;;;;;23.58;14.50;;;;;;;;;;4958551;28;20056;-77
2022/05/18 09:14:47;;;;;;;23.40;14.93;;;;;;;;;;4969129;28;20871;-76
2022/05/18 09:17:20;;;;;;;24.45;14.95;;;;;;;;;;4977690;28;20848;-75
2022/05/18 09:19:48;;;;;;;22.67;13.50;;;;;;;;;;4962410;28;20026;-75
2022/05/18 09:22:33;;;;;;;21.13;13.73;;;;;;;;;;4959789;28;20035;-76
2022/05/18 09:25:06;;;;;;;23.52;13.25;;;;;;;;;;4952268;28;20076;-74
2022/05/18 09:27:50;;;;;;;23.00;13.70;;;;;;;;;;4959476;28;20060;-79
2022/05/18 09:30:41;;;;;;;17.70;11.63;;;;;;;;;;4975833;28;22364;-75
2022/05/18 09:33:07;;;;;;;;;;;;;;;;;;4943169;28;20589;-73
2022/05/18 09:35:51;;;;;;;20.40;11.30;;;;;;;;;;4955426;28;19925;-75
2022/05/18 09:38:35;;;;;;;15.85;10.45;;;;;;;;;;4969041;28;20284;-71
2022/05/18 09:41:04;;;;;;;20.65;11.93;;;;;;;;;;4979787;28;20037;-75
2022/05/18 09:43:40;;;;;;;18.77;11.02;;;;;;;;;;4987668;28;20033;-76
2022/05/18 09:46:11;;;;;;;16.85;10.75;;;;;;;;;;4980094;28;20526;-75
2022/05/18 09:48:39;;;;;;;17.65;10.73;;;;;;;;;;4979559;28;20037;-75
2022/05/18 09:51:06;;;;;;;16.30;10.98;;;;;;;;;;4984660;28;24948;-75
2022/05/18 09:53:34;;;;;;;17.35;10.43;;;;;;;;;;4977025;28;20040;-72
2022/05/18 09:55:59;;;;;;;18.27;10.52;;;;;;;;;;4969155;28;20040;-71
2022/05/18 09:58:36;;;;;;;17.58;10.18;;;;;;;;;;4976913;28;20034;-71
2022/05/18 10:09:43;;;;;;;14.65;8.65;;;;;;;;;;4988944;28;20129;-73
2022/05/18 10:12:14;;;;;;;13.48;8.68;;;;;;;;;;4971576;28;20550;-73
2022/05/18 10:14:40;;;;;;;15.63;9.05;;;;;;;;;;4978976;28;20040;-73
2022/05/18 10:17:11;;;;;;;15.07;8.68;;;;;;;;;;4995338;28;20041;-74
2022/05/18 10:19:44;;;;;;;14.68;8.50;;;;;;;;;;4982154;28;20823;-73
2022/05/18 10:22:13;;;;;;;15.13;8.07;;;;;;;;;;4965707;28;20105;-72
2022/05/18 10:24:41;;;;;;;16.23;8.73;;;;;;;;;;4967319;28;20044;-75
2022/05/18 10:27:12;;;;;;;14.10;8.25;;;;;;;;;;4961030;28;22428;-74
2022/05/18 10:29:38;;;;;;;15.75;7.95;;;;;;;;;;4971375;28;21327;-73
2022/05/18 10:32:09;;;;;;;14.10;8.43;;;;;;;;;;4982843;28;20041;-73
2022/05/18 10:34:45;;;;;;;12.65;7.40;;;;;;;;;;4975707;28;21047;-72
2022/05/18 10:37:11;;;;;;;12.57;7.22;;;;;;;;;;4972303;28;20906;-72
2022/05/18 10:39:38;;;;;;;13.55;6.93;;;;;;;;;;4975050;28;20140;-74
2022/05/18 10:42:09;;;;;;;13.25;7.38;;;;;;;;;;4978795;28;20708;-74
2022/05/18 10:44:35;;;;;;;12.70;7.03;;;;;;;;;;4978707;28;20037;-75
2022/05/18 10:47:13;;;;;;;10.95;6.18;;;;;;;;;;4979248;28;20912;-73
2022/05/18 10:49:38;;;;;;;12.88;6.85;;;;;;;;;;4976059;28;20048;-72
2022/05/18 10:52:15;;;;;;;12.45;6.22;;;;;;;;;;4977706;28;20033;-74
2022/05/18 10:55:01;;;;;;;11.65;6.10;;;;;;;;;;4980576;28;20140;-73
2022/05/18 10:57:34;;;;;;;11.48;5.38;;;;;;;;;;4972737;28;20754;-74
2022/05/18 11:00:06;;;;;;;11.23;4.45;;;;;;;;;;4995222;28;21365;-75
2022/05/18 11:02:39;;;;;;;9.25;4.35;;;;;;;;;;4982693;28;20033;-75
2022/05/18 11:05:19;;;;;;;5.80;3.42;;;;;;;;;;4974669;28;20072;-73
2022/05/18 11:07:45;;;;;;;7.87;3.83;;;;;;;;;;4977561;28;20986;-72
2022/05/18 11:10:10;;;;;;;10.00;4.10;;;;;;;;;;4984564;28;20073;-74
2022/05/18 11:12:45;;;;;;;7.20;3.65;;;;;;;;;;4980682;28;20045;-71
2022/05/18 11:15:15;;;;;;;9.35;3.80;;;;;;;;;;4977968;28;20040;-72
2022/05/18 11:17:59;;;;;;;11.20;3.72;;;;;;;;;;4977315;28;20552;-72
2022/05/18 11:20:33;;;;;;;10.30;4.40;;;;;;;;;;4980373;28;20533;-72
2022/05/18 11:23:02;;;;;;;9.55;3.30;;;;;;;;;;4974111;28;20038;-73
2022/05/18 11:25:43;;;;;;;7.53;3.25;;;;;;;;;;4988003;28;20050;-73
2022/05/18 11:28:08;;;;;;;;;;;;;;;;;;4978514;28;20179;-74
2022/05/18 11:30:45;;;;;;;11.27;3.43;;;;;;;;;;4971757;28;20782;-73
2022/05/18 11:33:23;;;;;;;7.40;3.38;;;;;;;;;;4980070;28;21199;-77
2022/05/18 11:36:09;;;;;;;7.97;3.85;;;;;;;;;;4984690;28;20595;-69
2022/05/18 11:38:34;;;;;;;8.80;3.70;;;;;;;;;;4977010;28;20603;-70
2022/05/18 11:41:10;;;;;;;10.50;4.22;;;;;;;;;;4973925;28;20027;-70
2022/05/18 11:43:57;;;;;;;6.82;3.83;;;;;;;;;;4975074;28;20816;-70
2022/05/18 11:46:28;;;;;;;8.93;3.92;;;;;;;;;;4972080;28;21204;-71
2022/05/18 11:49:00;;;;;;;7.60;3.65;;;;;;;;;;4983635;28;20047;-71
2022/05/18 11:51:36;;;;;;;8.00;3.85;;;;;;;;;;4976924;28;20142;-70
2022/05/18 11:54:13;;;;;;;5.93;3.30;;;;;;;;;;4973075;28;20034;-71
2022/05/18 11:56:45;;;;;;;6.43;3.47;;;;;;;;;;4977262;28;20044;-72
2022/05/18 12:01:41;;;;;;;7.63;3.78;;;;;;;;;;4974027;28;20030;-72
2022/05/18 12:04:12;;;;;;;10.15;4.13;;;;;;;;;;4962832;28;20035;-72
2022/05/18 12:07:01;;;;;;;10.52;3.72;;;;;;;;;;4965916;28;20064;-72
2022/05/18 12:09:41;;;;;;;10.82;3.80;;;;;;;;;;4958738;28;20152;-74
2022/05/18 12:12:12;;;;;;;7.82;3.63;;;;;;;;;;4990713;28;20789;-74
2022/05/18 12:14:56;;;;;;;10.40;3.72;;;;;;;;;;4968458;28;20491;-73
2022/05/18 12:17:41;;;;;;;8.90;4.25;;;;;;;;;;4977982;28;20573;-72
2022/05/18 12:20:17;;;;;;;8.77;4.30;;;;;;;;;;4966499;28;20355;-69
2022/05/18 12:22:48;;;;;;;10.13;4.30;;;;;;;;;;4970728;28;20061;-70
2022/05/18 12:25:17;;;;;;;7.63;3.88;;;;;;;;;;4965062;28;20612;-71
2022/05/18 12:27:45;;;;;;;10.35;4.30;;;;;;;;;;4968714;28;20519;-71
2022/05/18 12:30:12;;;;;;;11.00;4.22;;;;;;;;;;4958293;28;20705;-71
2022/05/18 12:32:38;;;;;;;9.77;4.43;;;;;;;;;;4968821;28;20034;-70
2022/05/18 12:35:17;;;;;;;8.70;4.20;;;;;;;;;;4970786;28;20104;-70
2022/05/18 12:37:51;;;;;;;8.30;4.00;;;;;;;;;;4972597;28;20534;-69
2022/05/18 12:40:22;;;;;;;9.75;4.07;;;;;;;;;;4970289;28;21110;-70
2022/05/18 12:42:48;;;;;;;;;;;;;;;;;;4967844;28;20061;-70
2022/05/18 12:45:14;;;;;;;11.05;4.50;;;;;;;;;;4970448;28;19923;-71
2022/05/18 12:47:42;;;;;;;9.43;4.47;;;;;;;;;;4956779;28;20072;-71
2022/05/18 12:50:19;;;;;;;10.88;4.65;;;;;;;;;;4968856;28;20034;-70
2022/05/18 12:52:44;;;;;;;10.35;4.35;;;;;;;;;;4964105;28;20053;-69
2022/05/18 12:55:22;;;;;;;11.68;4.05;;;;;;;;;;4981239;28;20030;-72
2022/05/18 12:57:50;;;;;;;9.48;3.88;;;;;;;;;;4993149;28;20140;-72
2022/05/18 13:00:24;;;;;;;9.65;3.45;;;;;;;;;;4989426;28;20041;-72
2022/05/18 13:02:57;;;;;;;8.55;3.88;;;;;;;;;;4988105;28;20157;-69
2022/05/18 13:05:25;;;;;;;8.43;4.00;;;;;;;;;;4979625;28;20939;-69
2022/05/18 13:07:50;;;;;;;9.35;4.20;;;;;;;;;;4985862;28;20842;-73
2022/05/18 13:10:20;;;;;;;10.50;4.45;;;;;;;;;;5008992;28;20077;-77
2022/05/18 13:12:45;;;;;;;10.70;3.90;;;;;;;;;;4995739;28;20844;-71
2022/05/18 13:15:19;;;;;;;8.35;3.55;;;;;;;;;;4993163;28;20040;-69
2022/05/18 13:17:48;;;;;;;10.85;3.90;;;;;;;;;;4991963;28;20039;-70
2022/05/18 13:20:21;;;;;;;9.23;4.03;;;;;;;;;;4979040;28;20033;-73
2022/05/18 13:22:58;;;;;;;11.85;4.22;;;;;;;;;;5001057;28;20917;-71
2022/05/18 13:25:27;;;;;;;8.32;3.67;;;;;;;;;;4992308;28;20073;-76
2022/05/18 13:27:53;;;;;;;7.80;3.92;;;;;;;;;;4984363;28;20121;-72
2022/05/18 13:30:22;;;;;;;9.75;3.90;;;;;;;;;;4967966;28;20045;-69
2022/05/18 13:32:48;;;;;;;7.93;3.40;;;;;;;;;;4989390;28;20045;-71
2022/05/18 13:35:15;;;;;;;8.45;3.80;;;;;;;;;;4979185;28;20125;-74
2022/05/18 13:37:41;;;;;;;9.18;4.32;;;;;;;;;;4970539;28;20030;-70
2022/05/18 13:40:07;;;;;;;10.27;4.18;;;;;;;;;;4973905;28;20641;-72
2022/05/18 13:42:33;;;;;;;9.85;3.90;;;;;;;;;;4975245;28;20030;-73
2022/05/18 13:45:01;;;;;;;8.82;4.15;;;;;;;;;;4970856;28;20034;-73
2022/05/18 13:47:42;;;;;;;8.45;4.05;;;;;;;;;;4970731;28;20151;-71
2022/05/18 13:50:09;;;;;;;9.18;3.67;;;;;;;;;;4969537;28;20213;-72
2022/05/18 13:52:41;;;;;;;10.32;4.00;;;;;;;;;;4980640;28;20585;-72
2022/05/18 13:55:08;;;;;;;7.78;3.70;;;;;;;;;;4970849;28;20384;-73
2022/05/18 13:57:40;;;;;;;7.40;3.78;;;;;;;;;;4969591;28;20045;-73
2022/05/18 14:00:18;;;;;;;6.78;3.75;;;;;;;;;;4969438;28;20042;-75
2022/05/18 14:02:43;;;;;;;7.90;3.33;;;;;;;;;;4963375;28;22497;-73
2022/05/18 14:05:11;;;;;;;9.80;3.88;;;;;;;;;;4972966;28;20034;-72
2022/05/18 14:07:37;;;;;;;8.05;3.30;;;;;;;;;;4987306;28;20125;-72
2022/05/18 14:10:04;;;;;;;7.88;3.45;;;;;;;;;;4989528;28;20173;-71
2022/05/18 14:12:32;;;;;;;7.07;3.20;;;;;;;;;;4969693;28;20331;-73
2022/05/18 14:14:57;;;;;;;10.07;3.42;;;;;;;;;;4991955;28;20025;-74
2022/05/18 14:17:24;;;;;;;10.25;3.22;;;;;;;;;;5007947;28;20044;-73
2022/05/18 14:19:55;;;;;;;8.90;3.35;;;;;;;;;;5004478;28;20784;-74
2022/05/18 14:22:25;;;;;;;7.43;3.20;;;;;;;;;;4990424;28;20042;-74
2022/05/18 14:25:01;;;;;;;6.82;3.20;;;;;;;;;;4991438;28;20040;-73
2022/05/18 14:27:37;;;;;;;8.10;2.80;;;;;;;;;;4991679;28;20048;-74
2022/05/18 14:30:07;;;;;;;6.47;2.90;;;;;;;;;;4991501;28;20068;-75
2022/05/18 14:32:40;;;;;;;6.00;3.17;;;;;;;;;;4992668;28;20057;-75
2022/05/18 14:35:06;;;;;;;5.50;2.50;;;;;;;;;;4979840;28;20095;-74
2022/05/18 14:37:34;;;;;;;7.07;2.60;;;;;;;;;;4972544;28;20033;-73
2022/05/18 14:40:01;;;;;;;6.95;3.00;;;;;;;;;;4973343;28;20086;-74
2022/05/18 14:42:28;;;;;;;6.57;2.83;;;;;;;;;;4969449;28;20046;-72
2022/05/18 14:45:10;;;;;;;6.50;2.63;;;;;;;;;;4968091;28;20029;-73
2022/05/18 14:47:41;;;;;;;6.60;2.70;;;;;;;;;;4980733;28;20049;-70
2022/05/18 14:50:25;;;;;;;4.10;2.47;;;;;;;;;;4990604;28;20034;-72
2022/05/18 14:52:54;;;;;;;6.47;2.60;;;;;;;;;;4985313;28;20045;-70
2022/05/18 14:55:24;;;;;;;5.82;2.30;;;;;;;;;;4989547;28;20033;-73